createdAt,value
2022-11-04T00:00:09.923Z,10.79
2022-11-04T00:02:36.915Z,10.76
2022-11-04T00:05:03.576Z,10.78
2022-11-04T00:07:48.434Z,10.81
2022-11-04T00:10:14.902Z,10.84
2022-11-04T00:12:41.298Z,10.75
2022-11-04T00:15:26.816Z,10.73
2022-11-04T00:17:53.203Z,10.73
2022-11-04T00:20:38.045Z,10.72
2022-11-04T00:23:22.922Z,10.75
2022-11-04T00:26:07.820Z,10.80
2022-11-04T00:28:43.191Z,10.81
2022-11-04T00:31:28.834Z,10.75
2022-11-04T00:33:57.121Z,10.73
2022-11-04T00:36:24.129Z,10.78
2022-11-04T00:38:50.628Z,10.84
2022-11-04T00:41:26.754Z,10.83
2022-11-04T00:43:53.793Z,10.79
2022-11-04T00:46:20.310Z,10.60
2022-11-04T00:48:46.714Z,10.56
2022-11-04T00:53:44.390Z,10.38
2022-11-04T00:56:11.084Z,10.23
2022-11-04T00:58:37.449Z,10.18
2022-11-04T01:01:07.464Z,10.13
2022-11-04T01:03:33.873Z,10.06
2022-11-04T01:06:00.254Z,9.98
2022-11-04T01:08:26.719Z,10.00
2022-11-04T01:10:53.129Z,9.94
2022-11-04T01:13:19.471Z,9.95
2022-11-04T01:15:45.893Z,9.97
2022-11-04T01:18:12.335Z,10.03
2022-11-04T01:20:38.727Z,10.07
2022-11-04T01:23:05.205Z,10.04
2022-11-04T01:25:31.602Z,10.00
2022-11-04T01:27:58.018Z,10.01
2022-11-04T01:30:24.380Z,9.94
2022-11-04T01:32:50.777Z,9.97
2022-11-04T01:35:17.225Z,9.97
2022-11-04T01:37:43.656Z,10.01
2022-11-04T01:40:10.389Z,10.08
2022-11-04T01:42:36.785Z,10.08
2022-11-04T01:45:03.245Z,10.11
2022-11-04T01:47:32.353Z,10.15
2022-11-04T01:50:06.994Z,10.10
2022-11-04T01:52:45.743Z,10.18
2022-11-04T01:55:16.037Z,10.15
2022-11-04T01:57:44.898Z,10.14
2022-11-04T02:00:12.285Z,10.18
2022-11-04T02:02:53.689Z,10.26
2022-11-04T02:05:20.675Z,10.15
2022-11-04T02:07:51.967Z,10.16
2022-11-04T02:10:20.439Z,10.13
2022-11-04T02:12:49.809Z,10.21
2022-11-04T02:15:27.440Z,10.18
2022-11-04T02:18:01.973Z,10.37
2022-11-04T02:20:31.322Z,10.39
2022-11-04T02:23:10.122Z,10.33
2022-11-04T02:25:42.815Z,10.33
2022-11-04T02:28:15.449Z,10.19
2022-11-04T02:30:50.217Z,10.06
2022-11-04T02:33:23.058Z,9.98
2022-11-04T02:36:01.687Z,10.00
2022-11-04T02:38:28.055Z,9.97
2022-11-04T02:40:57.430Z,9.98
2022-11-04T02:43:23.780Z,10.03
2022-11-04T02:46:02.994Z,10.06
2022-11-04T02:48:38.746Z,10.10
2022-11-04T02:51:05.218Z,10.12
2022-11-04T02:53:57.600Z,10.16
2022-11-04T02:56:25.206Z,10.15
2022-11-04T02:59:00.048Z,10.04
2022-11-04T03:01:29.557Z,10.10
2022-11-04T03:03:59.726Z,10.22
2022-11-04T03:06:26.931Z,10.11
2022-11-04T03:08:54.306Z,10.33
2022-11-04T03:11:23.401Z,10.37
2022-11-04T03:13:53.217Z,10.48
2022-11-04T03:16:22.812Z,10.43
2022-11-04T03:18:49.244Z,10.41
2022-11-04T03:21:17.284Z,10.37
2022-11-04T03:23:43.646Z,10.19
2022-11-04T03:26:29.918Z,10.22
2022-11-04T03:29:04.720Z,10.33
2022-11-04T03:31:40.708Z,10.12
2022-11-04T03:34:07.075Z,10.08
2022-11-04T03:36:33.429Z,9.91
2022-11-04T03:38:59.813Z,9.93
2022-11-04T03:41:30.235Z,9.91
2022-11-04T03:43:56.766Z,9.87
2022-11-04T03:46:23.279Z,10.06
2022-11-04T03:48:51.476Z,10.13
2022-11-04T03:51:17.907Z,10.23
2022-11-04T03:53:44.464Z,10.18
2022-11-04T03:56:26.146Z,10.29
2022-11-04T03:58:52.486Z,10.26
2022-11-04T04:01:37.847Z,10.20
2022-11-04T04:04:04.351Z,10.30
2022-11-04T04:06:34.005Z,10.27
2022-11-04T04:09:15.983Z,10.22
2022-11-04T04:11:42.391Z,10.31
2022-11-04T04:14:42.142Z,10.34
2022-11-04T04:17:14.683Z,10.41
2022-11-04T04:19:44.571Z,10.44
2022-11-04T04:22:14.418Z,10.50
2022-11-04T04:25:01.658Z,10.50
2022-11-04T04:27:33.103Z,10.44
2022-11-04T04:30:04.606Z,10.48
2022-11-04T04:32:34.223Z,10.51
2022-11-04T04:35:19.126Z,10.44
2022-11-04T04:37:46.159Z,10.45
2022-11-04T04:40:34.333Z,10.40
2022-11-04T04:43:23.756Z,10.35
2022-11-04T04:45:52.558Z,10.21
2022-11-04T04:48:19.183Z,10.33
2022-11-04T04:50:48.515Z,10.33
2022-11-04T04:53:15.279Z,10.29
2022-11-04T04:55:42.086Z,10.15
2022-11-04T04:58:08.708Z,10.08
2022-11-04T05:00:35.137Z,10.01
2022-11-04T05:03:01.581Z,9.96
2022-11-04T05:05:28.153Z,9.96
2022-11-04T05:07:54.552Z,9.87
2022-11-04T05:10:21.238Z,9.81
2022-11-04T05:13:06.370Z,9.86
2022-11-04T05:15:32.913Z,9.78
2022-11-04T05:18:00.357Z,9.80
2022-11-04T05:20:28.950Z,9.71
2022-11-04T05:22:55.313Z,9.71
2022-11-04T05:25:21.801Z,9.77
2022-11-04T05:27:48.262Z,9.82
2022-11-04T05:30:14.639Z,9.94
2022-11-04T05:32:41.051Z,9.83
2022-11-04T05:35:07.655Z,9.91
2022-11-04T05:37:34.044Z,10.01
2022-11-04T05:40:00.470Z,10.08
2022-11-04T05:42:27.063Z,10.16
2022-11-04T05:44:53.482Z,10.20
2022-11-04T05:47:19.891Z,10.16
2022-11-04T05:49:46.248Z,10.23
2022-11-04T05:52:12.717Z,10.24
2022-11-04T05:54:42.176Z,10.23
2022-11-04T05:57:09.506Z,10.17
2022-11-04T05:59:35.929Z,10.14
2022-11-04T06:02:02.920Z,10.15
2022-11-04T06:04:29.483Z,10.14
2022-11-04T06:06:56.231Z,10.16
2022-11-04T06:09:38.740Z,10.18
2022-11-04T06:12:09.631Z,10.09
2022-11-04T06:14:36.107Z,9.95
2022-11-04T06:17:02.805Z,9.87
2022-11-04T06:19:29.488Z,9.73
2022-11-04T06:21:55.979Z,9.73
2022-11-04T06:24:22.406Z,9.72
2022-11-04T06:26:48.831Z,9.69
2022-11-04T06:29:15.260Z,9.70
2022-11-04T06:31:41.643Z,9.65
2022-11-04T06:34:08.008Z,9.66
2022-11-04T06:36:34.485Z,9.68
2022-11-04T06:39:04.759Z,9.62
2022-11-04T06:41:31.847Z,9.62
2022-11-04T06:43:58.263Z,9.64
2022-11-04T06:46:24.582Z,9.66
2022-11-04T06:48:50.958Z,9.75
2022-11-04T06:51:17.303Z,9.73
2022-11-04T06:53:43.726Z,9.81
2022-11-04T06:56:10.203Z,9.90
2022-11-04T06:58:36.602Z,9.82
2022-11-04T07:01:07.201Z,9.89
2022-11-04T07:03:37.669Z,9.99
2022-11-04T07:06:10.750Z,10.06
2022-11-04T07:08:37.144Z,10.16
2022-11-04T07:11:03.634Z,10.18
2022-11-04T07:13:30.060Z,10.10
2022-11-04T07:15:56.442Z,10.19
2022-11-04T07:18:22.820Z,10.30
2022-11-04T07:20:49.344Z,10.37
2022-11-04T07:23:15.698Z,10.43
2022-11-04T07:25:42.120Z,10.40
2022-11-04T07:28:09.026Z,10.44
2022-11-04T07:30:36.066Z,10.48
2022-11-04T07:33:02.571Z,10.51
2022-11-04T07:35:28.989Z,10.45
2022-11-04T07:37:55.450Z,10.45
2022-11-04T07:40:21.837Z,10.51
2022-11-04T07:42:48.247Z,10.50
2022-11-04T07:45:17.600Z,10.55
2022-11-04T07:47:43.967Z,10.53
2022-11-04T07:50:11.356Z,10.44
2022-11-04T07:52:38.074Z,10.30
2022-11-04T07:55:04.709Z,10.18
2022-11-04T07:57:31.106Z,10.30
2022-11-04T07:59:57.525Z,10.26
2022-11-04T08:02:27.631Z,10.27
2022-11-04T08:04:56.627Z,10.12
2022-11-04T08:07:23.039Z,10.13
2022-11-04T08:09:49.405Z,10.05
2022-11-04T08:12:15.855Z,9.81
2022-11-04T08:14:42.239Z,9.78
2022-11-04T08:17:10.109Z,9.80
2022-11-04T08:19:36.515Z,9.81
2022-11-04T08:22:02.924Z,9.75
2022-11-04T08:24:29.348Z,9.79
2022-11-04T08:26:55.746Z,9.74
2022-11-04T08:29:22.396Z,9.67
2022-11-04T08:31:48.783Z,9.76
2022-11-04T08:34:17.350Z,9.80
2022-11-04T08:36:44.491Z,9.70
2022-11-04T08:39:11.669Z,9.75
2022-11-04T08:41:40.913Z,9.70
2022-11-04T08:44:07.739Z,9.82
2022-11-04T08:46:35.697Z,9.80
2022-11-04T08:49:07.060Z,9.85
2022-11-04T08:51:38.090Z,9.82
2022-11-04T08:54:05.214Z,9.92
2022-11-04T08:57:10.082Z,9.94
2022-11-04T08:59:36.670Z,9.93
2022-11-04T09:02:03.112Z,10.01
2022-11-04T09:04:29.597Z,9.94
2022-11-04T09:06:56.264Z,10.05
2022-11-04T09:09:22.947Z,10.00
2022-11-04T09:11:49.436Z,9.97
2022-11-04T09:14:17.669Z,10.10
2022-11-04T09:16:44.312Z,10.19
2022-11-04T09:19:10.760Z,10.37
2022-11-04T09:21:37.229Z,10.47
2022-11-04T09:24:04.091Z,10.55
2022-11-04T09:26:31.214Z,10.66
2022-11-04T09:28:58.481Z,10.82
2022-11-04T09:31:26.141Z,10.98
2022-11-04T09:33:53.929Z,10.99
2022-11-04T09:36:20.314Z,11.12
2022-11-04T09:38:46.748Z,11.17
2022-11-04T09:41:22.105Z,11.23
2022-11-04T09:43:51.578Z,11.26
2022-11-04T09:46:18.585Z,11.14
2022-11-04T09:48:53.791Z,11.19
2022-11-04T09:51:47.984Z,11.24
2022-11-04T09:54:16.758Z,11.37
2022-11-04T09:56:44.914Z,11.44
2022-11-04T09:59:15.072Z,11.48
2022-11-04T10:01:44.296Z,11.48
2022-11-04T10:04:10.767Z,11.70
2022-11-04T10:06:49.335Z,11.74
2022-11-04T10:09:34.616Z,11.90
2022-11-04T10:12:21.872Z,11.92
2022-11-04T10:14:57.359Z,11.88
2022-11-04T10:17:35.063Z,12.09
2022-11-04T10:20:16.646Z,11.87
2022-11-04T10:22:47.968Z,12.00
2022-11-04T10:25:17.595Z,11.92
2022-11-04T10:27:46.618Z,11.78
2022-11-04T10:30:18.760Z,11.65
2022-11-04T10:33:03.913Z,11.87
2022-11-04T10:35:46.911Z,12.01
2022-11-04T10:38:33.566Z,12.21
2022-11-04T10:41:05.972Z,12.40
2022-11-04T10:43:37.614Z,12.69
2022-11-04T10:46:09.969Z,12.77
2022-11-04T10:48:39.126Z,12.80
2022-11-04T10:51:05.628Z,12.78
2022-11-04T10:53:32.836Z,12.91
2022-11-04T10:56:03.012Z,13.01
2022-11-04T10:58:31.100Z,13.02
2022-11-04T11:00:57.982Z,12.95
2022-11-04T11:03:24.934Z,13.07
2022-11-04T11:05:52.747Z,13.08
2022-11-04T11:08:29.976Z,12.98
2022-11-04T11:10:56.663Z,12.94
2022-11-04T11:13:35.141Z,12.79
2022-11-04T11:16:06.732Z,12.77
2022-11-04T11:18:33.177Z,12.82
2022-11-04T11:21:05.087Z,12.87
2022-11-04T11:23:42.301Z,12.89
2022-11-04T11:26:14.251Z,12.97
2022-11-04T11:28:41.482Z,13.06
2022-11-04T11:31:14.394Z,13.20
2022-11-04T11:33:46.657Z,13.28
2022-11-04T11:36:13.093Z,13.46
2022-11-04T11:38:50.758Z,13.05
2022-11-04T11:41:25.286Z,13.17
2022-11-04T11:43:53.138Z,13.11
2022-11-04T11:46:28.103Z,13.39
2022-11-04T11:49:00.871Z,13.46
2022-11-04T11:51:32.321Z,13.19
2022-11-04T11:54:18.057Z,12.89
2022-11-04T12:02:33.683Z,12.80
2022-11-04T12:11:09.929Z,12.13
2022-11-04T12:13:39.437Z,12.10
2022-11-04T12:16:08.278Z,12.03
2022-11-04T12:18:40.390Z,12.06
2022-11-04T12:21:14.950Z,12.02
2022-11-04T12:23:56.828Z,12.04
2022-11-04T12:26:24.530Z,12.09
2022-11-04T12:29:10.889Z,12.19
2022-11-04T12:31:50.100Z,12.28
2022-11-04T12:34:24.621Z,12.25
2022-11-04T12:37:09.878Z,12.33
2022-11-04T12:39:45.315Z,12.22
2022-11-04T12:42:20.991Z,12.11
2022-11-04T12:45:17.750Z,12.04
2022-11-04T12:47:45.489Z,11.95
2022-11-04T12:50:18.111Z,11.81
2022-11-04T12:52:59.494Z,11.86
2022-11-04T12:55:40.990Z,11.89
2022-11-04T12:58:13.227Z,11.98
2022-11-04T13:00:41.969Z,11.83
2022-11-04T13:03:30.174Z,11.60
2022-11-04T13:05:59.325Z,11.61
2022-11-04T13:08:31.811Z,11.71
2022-11-04T13:10:58.143Z,11.85
2022-11-04T13:13:28.359Z,11.95
2022-11-04T13:15:59.002Z,11.97
2022-11-04T13:18:27.600Z,12.00
2022-11-04T13:21:02.261Z,11.92
2022-11-04T13:23:34.535Z,11.78
2022-11-04T13:26:02.253Z,11.89
2022-11-04T13:28:28.743Z,11.94
2022-11-04T13:30:58.033Z,12.01
2022-11-04T13:33:30.847Z,12.08
2022-11-04T13:36:06.155Z,12.41
2022-11-04T13:38:36.858Z,12.66
2022-11-04T13:41:22.019Z,12.70
2022-11-04T13:43:59.547Z,12.67
2022-11-04T13:46:30.416Z,12.68
2022-11-04T13:48:56.776Z,12.79
2022-11-04T13:51:23.431Z,12.88
2022-11-04T13:53:51.828Z,13.09
2022-11-04T13:56:33.954Z,13.14
2022-11-04T13:59:04.002Z,13.06
2022-11-04T14:01:32.620Z,13.04
2022-11-04T14:04:02.918Z,12.94
2022-11-04T14:06:47.770Z,13.09
2022-11-04T14:09:24.381Z,13.24
2022-11-04T14:12:09.653Z,13.14
2022-11-04T14:14:36.978Z,13.06
2022-11-04T14:17:07.140Z,13.10
2022-11-04T14:19:47.547Z,12.98
2022-11-04T14:22:15.106Z,12.96
2022-11-04T14:24:41.547Z,12.80
2022-11-04T14:27:23.469Z,12.86
2022-11-04T14:29:51.917Z,12.92
2022-11-04T14:32:22.814Z,12.79
2022-11-04T14:34:56.920Z,12.82
2022-11-04T14:37:26.254Z,12.82
2022-11-04T14:39:57.834Z,12.75
2022-11-04T14:42:42.312Z,12.64
2022-11-04T14:45:09.422Z,12.62
2022-11-04T14:47:37.310Z,12.57
2022-11-04T14:50:07.600Z,12.58
2022-11-04T14:52:37.950Z,12.64
2022-11-04T14:55:04.353Z,12.61
2022-11-04T14:57:35.868Z,12.57
2022-11-04T15:00:22.084Z,12.57
2022-11-04T15:02:48.950Z,12.48
2022-11-04T15:05:26.454Z,12.44
2022-11-04T15:07:52.816Z,12.40
2022-11-04T15:10:24.694Z,12.41
2022-11-04T15:12:52.321Z,12.43
2022-11-04T15:15:27.904Z,12.30
2022-11-04T15:17:59.467Z,12.29
2022-11-04T15:20:29.516Z,12.18
2022-11-04T15:22:57.428Z,12.19
2022-11-04T15:25:23.845Z,12.15
2022-11-04T15:27:50.388Z,12.13
2022-11-04T15:30:22.209Z,12.14
2022-11-04T15:33:01.902Z,12.16
2022-11-04T15:35:29.493Z,12.07
2022-11-04T15:37:56.831Z,12.16
2022-11-04T15:40:24.516Z,12.21
2022-11-04T15:42:51.831Z,12.20
2022-11-04T15:45:33.457Z,12.13
2022-11-04T15:48:18.763Z,12.22
2022-11-04T15:50:45.373Z,12.20
2022-11-04T15:53:15.524Z,12.21
2022-11-04T15:55:42.763Z,12.20
2022-11-04T15:58:13.363Z,12.24
2022-11-04T16:00:39.874Z,12.28
2022-11-04T16:03:07.423Z,12.31
2022-11-04T16:05:37.822Z,12.32
2022-11-04T16:08:24.015Z,12.36
2022-11-04T16:11:08.942Z,12.34
2022-11-04T16:13:35.704Z,12.37
2022-11-04T16:16:03.257Z,12.29
2022-11-04T16:18:36.141Z,12.19
2022-11-04T16:21:11.209Z,12.26
2022-11-04T16:23:43.368Z,12.23
2022-11-04T16:26:10.433Z,12.22
2022-11-04T16:28:38.217Z,12.25
2022-11-04T16:31:23.195Z,12.29
2022-11-04T16:33:50.208Z,12.29
2022-11-04T16:36:23.771Z,12.30
2022-11-04T16:39:04.130Z,12.34
2022-11-04T16:41:34.450Z,12.34
2022-11-04T16:44:01.393Z,12.15
2022-11-04T16:46:28.078Z,12.22
2022-11-04T16:48:54.537Z,12.19
2022-11-04T16:51:22.439Z,12.19
2022-11-04T16:53:50.482Z,12.15
2022-11-04T16:56:18.468Z,12.22
2022-11-04T16:58:45.196Z,12.19
2022-11-04T17:01:13.463Z,12.18
2022-11-04T17:03:40.570Z,12.00
2022-11-04T17:06:07.305Z,11.92
2022-11-04T17:08:33.824Z,11.94
2022-11-04T17:11:01.167Z,11.94
2022-11-04T17:16:15.091Z,11.77
2022-11-04T17:18:44.257Z,11.75
2022-11-04T17:21:13.369Z,11.80
2022-11-04T17:23:39.986Z,11.79
2022-11-04T17:26:06.732Z,11.93
2022-11-04T17:28:33.686Z,11.96
2022-11-04T17:31:01.486Z,11.99
2022-11-04T17:33:28.209Z,11.96
2022-11-04T17:35:54.826Z,11.96
2022-11-04T17:38:21.432Z,11.99
2022-11-04T17:41:06.825Z,12.00
2022-11-04T17:43:51.932Z,11.93
2022-11-04T17:46:36.906Z,11.99
2022-11-04T17:49:06.042Z,12.01
2022-11-04T17:51:33.062Z,11.96
2022-11-04T17:53:59.656Z,12.04
2022-11-04T17:56:27.011Z,12.04
2022-11-04T17:58:53.788Z,12.07
2022-11-04T18:01:22.138Z,12.06
2022-11-04T18:03:51.767Z,12.15
2022-11-04T18:06:18.371Z,12.08
2022-11-04T18:08:44.850Z,12.05
2022-11-04T18:11:12.446Z,11.95
2022-11-04T18:13:39.213Z,11.95
2022-11-04T18:16:10.249Z,11.96
2022-11-04T18:18:37.155Z,11.82
2022-11-04T18:21:04.744Z,11.69
2022-11-04T18:23:31.255Z,11.58
2022-11-04T18:25:58.399Z,11.64
2022-11-04T18:28:24.970Z,11.76
2022-11-04T18:30:51.686Z,11.85
2022-11-04T18:33:18.188Z,11.88
2022-11-04T18:35:44.547Z,11.95
2022-11-04T18:38:11.104Z,11.93
2022-11-04T18:40:37.593Z,11.93
2022-11-04T18:43:08.695Z,11.89
2022-11-04T18:45:35.985Z,11.74
2022-11-04T18:48:02.353Z,11.77
2022-11-04T18:50:28.752Z,11.73
2022-11-04T18:52:55.736Z,11.75
2022-11-04T18:55:23.713Z,11.64
2022-11-04T18:57:53.339Z,11.54
2022-11-04T19:00:19.677Z,11.61
2022-11-04T19:02:46.207Z,11.74
2022-11-04T19:05:12.675Z,11.69
2022-11-04T19:07:39.344Z,11.72
2022-11-04T19:10:05.939Z,11.71
2022-11-04T19:12:50.812Z,11.71
2022-11-04T19:15:17.400Z,11.72
2022-11-04T19:17:43.903Z,11.62
2022-11-04T19:20:12.477Z,11.56
2022-11-04T19:22:39.773Z,11.60
2022-11-04T19:25:06.418Z,11.64
2022-11-04T19:27:32.900Z,11.67
2022-11-04T19:29:59.256Z,11.69
2022-11-04T19:32:25.639Z,11.68
2022-11-04T19:34:51.995Z,11.67
2022-11-04T19:37:18.493Z,11.67
2022-11-04T19:39:44.938Z,11.68
2022-11-04T19:42:30.704Z,11.70
2022-11-04T19:44:57.179Z,11.65
2022-11-04T19:47:23.535Z,11.71
2022-11-04T19:49:49.910Z,11.77
2022-11-04T19:52:16.444Z,11.82
2022-11-04T19:54:42.807Z,11.86
2022-11-04T19:57:09.178Z,11.79
2022-11-04T19:59:35.654Z,11.73
2022-11-04T20:02:02.166Z,11.74
2022-11-04T20:04:28.664Z,11.71
2022-11-04T20:06:55.013Z,11.76
2022-11-04T20:09:22.346Z,11.82
2022-11-04T20:12:07.296Z,11.76
2022-11-04T20:14:33.732Z,11.70
2022-11-04T20:17:00.117Z,11.69
2022-11-04T20:19:26.515Z,11.71
2022-11-04T20:21:52.883Z,11.70
2022-11-04T20:24:19.366Z,11.68
2022-11-04T20:26:46.879Z,11.68
2022-11-04T20:29:15.826Z,11.55
2022-11-04T20:31:42.354Z,11.56
2022-11-04T20:34:09.167Z,11.24
2022-11-04T20:36:36.156Z,11.37
2022-11-04T20:39:05.078Z,11.42
2022-11-04T20:41:31.679Z,11.44
2022-11-04T20:43:58.424Z,11.24
2022-11-04T20:46:26.199Z,11.02
2022-11-04T20:48:53.299Z,10.70
2022-11-04T20:51:21.650Z,10.67
2022-11-04T20:53:48.168Z,10.73
2022-11-04T20:56:16.248Z,10.85
2022-11-04T20:58:43.928Z,10.78
2022-11-04T21:01:11.820Z,10.86
2022-11-04T21:03:38.348Z,10.79
2022-11-04T21:06:04.803Z,10.87
2022-11-04T21:08:34.944Z,10.93
2022-11-04T21:11:01.809Z,10.98
2022-11-04T21:13:28.165Z,11.03
2022-11-04T21:15:56.103Z,10.99
2022-11-04T21:18:22.941Z,10.83
2022-11-04T21:20:50.051Z,10.83
2022-11-04T21:23:17.765Z,10.79
2022-11-04T21:25:45.976Z,10.75
2022-11-04T21:28:13.430Z,10.75
2022-11-04T21:30:41.290Z,10.80
2022-11-04T21:33:07.843Z,10.80
2022-11-04T21:35:35.206Z,10.80
2022-11-04T21:38:01.894Z,10.72
2022-11-04T21:40:28.928Z,10.69
2022-11-04T21:42:55.300Z,10.72
2022-11-04T21:45:21.665Z,10.75
2022-11-04T21:47:48.075Z,10.74
2022-11-04T21:50:18.026Z,10.71
2022-11-04T21:52:44.782Z,10.68
2022-11-04T21:55:11.248Z,10.54
2022-11-04T21:57:38.143Z,10.52
2022-11-04T22:00:09.076Z,10.52
2022-11-04T22:02:43.120Z,10.49
2022-11-04T22:05:10.079Z,10.37
2022-11-04T22:07:55.238Z,10.33
2022-11-04T22:10:21.927Z,10.44
2022-11-04T22:12:51.212Z,10.43
2022-11-04T22:15:37.307Z,10.41
2022-11-04T22:18:04.178Z,10.36
2022-11-04T22:20:30.621Z,10.29
2022-11-04T22:22:57.252Z,10.43
2022-11-04T22:25:23.924Z,10.44
2022-11-04T22:27:50.316Z,10.49
2022-11-04T22:30:16.784Z,10.54
2022-11-04T22:32:43.240Z,10.50
2022-11-04T22:35:09.707Z,10.36
2022-11-04T22:37:36.104Z,10.18
2022-11-04T22:40:02.526Z,10.00
2022-11-04T22:42:28.932Z,10.09
2022-11-04T22:44:55.398Z,10.06
2022-11-04T22:47:21.886Z,9.88
2022-11-04T22:49:48.351Z,9.89
2022-11-04T22:52:14.725Z,9.94
2022-11-04T22:54:41.122Z,10.11
2022-11-04T22:57:07.601Z,9.96
2022-11-04T22:59:34.005Z,9.84
2022-11-04T23:02:00.644Z,9.95
2022-11-04T23:04:31.577Z,9.92
2022-11-04T23:06:58.297Z,9.94
2022-11-04T23:09:24.817Z,9.97
2022-11-04T23:12:09.977Z,9.98
2022-11-04T23:14:45.164Z,9.90
2022-11-04T23:17:35.134Z,9.96
2022-11-04T23:20:01.757Z,10.03
2022-11-04T23:22:46.986Z,9.89
2022-11-04T23:25:13.909Z,9.97
2022-11-04T23:28:01.656Z,10.08
2022-11-04T23:30:29.562Z,10.00
2022-11-04T23:33:00.509Z,10.03
2022-11-04T23:35:47.294Z,10.09
2022-11-04T23:38:14.300Z,10.08
2022-11-04T23:40:41.079Z,10.15
2022-11-04T23:43:09.878Z,10.07
2022-11-04T23:45:55.184Z,10.05
2022-11-04T23:48:40.301Z,10.04
2022-11-04T23:51:25.563Z,10.05
2022-11-04T23:54:10.410Z,9.96
2022-11-04T23:56:55.287Z,9.95
2022-11-04T23:59:40.174Z,9.94
